createdAt,value
2019-04-04T00:00:31.551Z,10.48
2019-04-04T00:01:34.468Z,7.87
2019-04-04T00:02:35.480Z,6.62
2019-04-04T00:03:36.788Z,9.10
2019-04-04T00:04:37.843Z,6.83
2019-04-04T00:05:38.846Z,10.58
2019-04-04T00:06:39.865Z,7.58
2019-04-04T00:07:40.880Z,9.50
2019-04-04T00:08:41.892Z,8.78
2019-04-04T00:09:42.918Z,9.60
2019-04-04T00:10:43.928Z,7.00
2019-04-04T00:11:44.935Z,9.60
2019-04-04T00:12:45.935Z,6.87
2019-04-04T00:13:46.943Z,8.65
2019-04-04T00:14:47.964Z,7.20
2019-04-04T00:15:49.008Z,8.88
2019-04-04T00:16:50.016Z,7.37
2019-04-04T00:17:53.474Z,9.05
2019-04-04T00:18:53.938Z,9.90
2019-04-04T00:19:54.958Z,7.75
2019-04-04T00:20:55.961Z,7.83
2019-04-04T00:21:56.970Z,8.28
2019-04-04T00:22:57.980Z,10.65
2019-04-04T00:23:58.986Z,8.38
2019-04-04T00:24:59.995Z,8.43
2019-04-04T00:26:01.323Z,9.20
2019-04-04T00:27:02.326Z,9.65
2019-04-04T00:28:03.324Z,10.00
2019-04-04T00:29:04.320Z,10.15
2019-04-04T00:30:05.544Z,8.83
2019-04-04T00:31:06.549Z,9.18
2019-04-04T00:32:07.571Z,7.12
2019-04-04T00:33:08.571Z,9.25
2019-04-04T00:34:09.580Z,7.95
2019-04-04T00:35:10.701Z,9.13
2019-04-04T00:36:11.944Z,7.05
2019-04-04T00:37:12.950Z,8.60
2019-04-04T00:38:13.943Z,8.45
2019-04-04T00:39:14.949Z,8.10
2019-04-04T00:40:15.964Z,9.68
2019-04-04T00:41:16.976Z,11.80
2019-04-04T00:42:17.992Z,7.05
2019-04-04T00:43:20.829Z,8.95
2019-04-04T00:44:23.183Z,7.08
2019-04-04T00:45:24.843Z,9.63
2019-04-04T00:46:25.850Z,8.98
2019-04-04T00:47:26.874Z,8.78
2019-04-04T00:48:27.893Z,6.75
2019-04-04T00:49:28.891Z,9.98
2019-04-04T00:50:29.918Z,17.32
2019-04-04T00:51:30.922Z,9.08
2019-04-04T00:52:31.923Z,8.05
2019-04-04T00:53:32.933Z,7.62
2019-04-04T00:54:34.271Z,9.85
2019-04-04T00:55:35.306Z,8.90
2019-04-04T00:56:36.641Z,11.12
2019-04-04T00:57:37.652Z,8.98
2019-04-04T00:58:38.668Z,10.05
2019-04-04T00:59:39.686Z,11.25
2019-04-04T01:00:40.696Z,11.43
2019-04-04T01:01:41.708Z,7.60
2019-04-04T01:02:42.708Z,10.25
2019-04-04T01:03:43.725Z,8.28
2019-04-04T01:04:44.734Z,8.53
2019-04-04T01:05:45.750Z,9.28
2019-04-04T01:06:46.752Z,8.60
2019-04-04T01:07:47.759Z,9.20
2019-04-04T01:08:48.769Z,8.28
2019-04-04T01:09:49.784Z,9.50
2019-04-04T01:10:50.802Z,9.25
2019-04-04T01:11:51.873Z,9.00
2019-04-04T01:12:52.913Z,10.55
2019-04-04T01:13:53.917Z,8.68
2019-04-04T01:14:54.925Z,9.85
2019-04-04T01:15:55.954Z,8.35
2019-04-04T01:16:57.002Z,9.08
2019-04-04T01:17:58.022Z,7.85
2019-04-04T01:18:59.024Z,10.63
2019-04-04T01:20:00.033Z,8.50
2019-04-04T01:21:01.055Z,9.58
2019-04-04T01:22:02.089Z,7.53
2019-04-04T01:23:03.096Z,9.90
2019-04-04T01:24:04.109Z,10.05
2019-04-04T01:25:07.018Z,9.53
2019-04-04T01:26:08.060Z,8.75
2019-04-04T01:27:09.069Z,7.22
2019-04-04T01:28:10.078Z,9.53
2019-04-04T01:29:11.224Z,8.65
2019-04-04T01:30:12.731Z,9.25
2019-04-04T01:31:14.985Z,10.43
2019-04-04T01:32:17.106Z,7.85
2019-04-04T01:33:20.092Z,10.18
2019-04-04T01:34:21.549Z,9.23
2019-04-04T01:35:23.241Z,9.73
2019-04-04T01:36:25.216Z,9.45
2019-04-04T01:37:27.759Z,7.28
2019-04-04T01:38:29.209Z,7.65
2019-04-04T01:39:31.207Z,9.83
2019-04-04T01:40:33.813Z,11.33
2019-04-04T01:41:36.423Z,11.73
2019-04-04T01:42:38.736Z,10.38
2019-04-04T01:43:40.689Z,8.65
2019-04-04T01:44:42.172Z,9.53
2019-04-04T01:45:44.860Z,8.38
2019-04-04T01:46:46.602Z,10.15
2019-04-04T01:47:48.092Z,10.32
2019-04-04T01:48:50.056Z,9.53
2019-04-04T01:49:51.997Z,11.20
2019-04-04T01:50:54.213Z,9.28
2019-04-04T01:51:57.714Z,10.23
2019-04-04T01:52:59.375Z,11.25
2019-04-04T01:54:01.642Z,7.05
2019-04-04T01:55:04.236Z,9.60
2019-04-04T01:56:06.837Z,10.15
2019-04-04T01:57:08.757Z,9.00
2019-04-04T01:58:10.635Z,9.55
2019-04-04T01:59:12.283Z,11.03
2019-04-04T02:00:15.100Z,9.53
2019-04-04T02:01:17.123Z,9.50
2019-04-04T02:02:18.615Z,7.58
2019-04-04T02:03:22.506Z,8.85
2019-04-04T02:04:22.924Z,9.05
2019-04-04T02:05:27.067Z,8.80
2019-04-04T02:06:29.075Z,8.73
2019-04-04T02:07:30.478Z,8.88
2019-04-04T02:08:32.067Z,9.70
2019-04-04T02:09:34.577Z,8.93
2019-04-04T02:10:36.049Z,8.98
2019-04-04T02:11:37.612Z,8.00
2019-04-04T02:12:39.382Z,10.95
2019-04-04T02:13:40.943Z,7.75
2019-04-04T02:14:43.121Z,9.13
2019-04-04T02:15:45.251Z,9.28
2019-04-04T02:16:50.770Z,10.90
2019-04-04T02:17:51.077Z,8.05
2019-04-04T02:18:53.815Z,8.30
2019-04-04T02:19:58.712Z,9.38
2019-04-04T02:20:59.733Z,9.90
2019-04-04T02:22:00.756Z,9.68
2019-04-04T02:23:01.938Z,12.45
2019-04-04T02:24:03.090Z,10.90
2019-04-04T02:25:05.501Z,7.30
2019-04-04T02:26:06.517Z,10.70
2019-04-04T02:27:07.643Z,8.18
2019-04-04T02:28:09.487Z,9.00
2019-04-04T02:29:11.066Z,10.80
2019-04-04T02:30:16.007Z,9.15
2019-04-04T02:31:15.903Z,10.10
2019-04-04T02:32:25.948Z,10.15
2019-04-04T02:33:24.257Z,10.43
2019-04-04T02:34:25.271Z,10.88
2019-04-04T02:35:26.273Z,10.72
2019-04-04T02:36:27.285Z,9.70
2019-04-04T02:37:28.307Z,12.45
2019-04-04T02:38:29.307Z,10.40
2019-04-04T02:39:30.315Z,9.70
2019-04-04T02:40:31.331Z,10.38
2019-04-04T02:41:32.349Z,10.00
2019-04-04T02:42:33.549Z,9.78
2019-04-04T02:43:34.580Z,9.68
2019-04-04T02:44:35.652Z,14.25
2019-04-04T02:45:38.783Z,10.55
2019-04-04T02:46:44.097Z,13.58
2019-04-04T02:47:42.493Z,10.93
2019-04-04T02:48:43.512Z,11.38
2019-04-04T02:49:44.664Z,10.58
2019-04-04T02:50:45.681Z,11.03
2019-04-04T02:51:46.710Z,10.88
2019-04-04T02:52:47.726Z,11.35
2019-04-04T02:53:51.920Z,10.05
2019-04-04T02:54:51.867Z,10.45
2019-04-04T02:55:52.876Z,8.95
2019-04-04T02:56:53.903Z,9.75
2019-04-04T02:57:54.940Z,8.78
2019-04-04T02:58:55.962Z,10.23
2019-04-04T02:59:56.969Z,8.70
2019-04-04T03:01:00.364Z,10.23
2019-04-04T03:02:04.734Z,11.28
2019-04-04T03:03:08.228Z,9.90
2019-04-04T03:04:06.733Z,8.18
2019-04-04T03:05:08.145Z,11.25
2019-04-04T03:06:09.163Z,10.45
2019-04-04T03:07:10.175Z,8.95
2019-04-04T03:08:11.181Z,9.10
2019-04-04T03:09:12.180Z,10.13
2019-04-04T03:10:16.515Z,9.73
2019-04-04T03:11:16.205Z,11.60
2019-04-04T03:12:17.476Z,11.30
2019-04-04T03:13:18.488Z,10.75
2019-04-04T03:14:19.493Z,9.38
2019-04-04T03:15:20.497Z,8.70
2019-04-04T03:16:22.462Z,11.33
2019-04-04T03:17:23.719Z,9.98
2019-04-04T03:18:24.733Z,11.57
2019-04-04T03:19:25.794Z,10.70
2019-04-04T03:20:26.853Z,11.00
2019-04-04T03:21:27.861Z,13.32
2019-04-04T03:22:28.872Z,10.85
2019-04-04T03:23:32.934Z,11.65
2019-04-04T03:24:32.799Z,9.40
2019-04-04T03:25:33.815Z,14.80
2019-04-04T03:26:34.920Z,9.65
2019-04-04T03:27:35.942Z,13.60
2019-04-04T03:28:36.954Z,12.28
2019-04-04T03:29:38.438Z,11.97
2019-04-04T03:30:39.678Z,13.40
2019-04-04T03:31:40.701Z,10.90
2019-04-04T03:32:41.805Z,11.68
2019-04-04T03:33:42.811Z,17.65
2019-04-04T03:34:50.210Z,10.93
2019-04-04T03:35:46.740Z,11.53
2019-04-04T03:36:47.741Z,17.62
2019-04-04T03:37:48.775Z,11.65
2019-04-04T03:38:49.784Z,11.63
2019-04-04T03:39:53.092Z,8.90
2019-04-04T03:40:57.442Z,10.60
2019-04-04T03:41:56.636Z,12.18
2019-04-04T03:42:57.659Z,12.10
2019-04-04T03:43:58.660Z,11.10
2019-04-04T03:44:59.902Z,12.00
2019-04-04T03:46:01.720Z,9.83
2019-04-04T03:47:03.020Z,12.90
2019-04-04T03:48:04.034Z,12.35
2019-04-04T03:49:05.036Z,12.07
2019-04-04T03:50:06.158Z,14.58
2019-04-04T03:51:07.165Z,13.38
2019-04-04T03:52:11.161Z,12.95
2019-04-04T03:53:16.344Z,14.25
2019-04-04T03:54:16.273Z,15.78
2019-04-04T03:55:17.284Z,15.70
2019-04-04T03:56:18.294Z,12.88
2019-04-04T03:57:19.316Z,14.70
2019-04-04T03:58:20.334Z,13.93
2019-04-04T03:59:21.355Z,12.65
2019-04-04T04:00:28.649Z,12.05
2019-04-04T04:01:29.659Z,14.23
2019-04-04T04:02:30.677Z,11.15
2019-04-04T04:03:31.700Z,12.93
2019-04-04T04:04:32.717Z,12.90
2019-04-04T04:05:35.672Z,13.25
2019-04-04T04:06:41.339Z,14.13
2019-04-04T04:07:39.566Z,14.03
2019-04-04T04:08:40.578Z,14.65
2019-04-04T04:09:41.587Z,11.97
2019-04-04T04:10:42.584Z,16.07
2019-04-04T04:11:43.592Z,12.88
2019-04-04T04:12:44.609Z,14.13
2019-04-04T04:13:48.848Z,11.83
2019-04-04T04:14:48.540Z,10.90
2019-04-04T04:15:49.543Z,14.43
2019-04-04T04:16:50.545Z,14.10
2019-04-04T04:17:51.568Z,16.90
2019-04-04T04:18:54.430Z,14.60
2019-04-04T04:19:55.527Z,17.62
2019-04-04T04:20:56.535Z,16.60
2019-04-04T04:21:57.550Z,15.45
2019-04-04T04:22:58.581Z,13.38
2019-04-04T04:23:59.592Z,12.00
2019-04-04T04:25:03.479Z,13.45
2019-04-04T04:26:08.287Z,15.00
2019-04-04T04:27:06.405Z,20.12
2019-04-04T04:28:07.424Z,15.35
2019-04-04T04:29:08.441Z,18.10
2019-04-04T04:30:09.666Z,16.97
2019-04-04T04:31:14.218Z,11.78
2019-04-04T04:32:13.676Z,16.55
2019-04-04T04:33:14.698Z,14.45
2019-04-04T04:34:15.717Z,11.68
2019-04-04T04:35:16.721Z,12.93
2019-04-04T04:36:17.743Z,14.45
2019-04-04T04:37:20.482Z,11.90
2019-04-04T04:38:25.517Z,14.65
2019-04-04T04:39:24.599Z,11.50
2019-04-04T04:40:25.610Z,15.10
2019-04-04T04:41:26.614Z,11.22
2019-04-04T04:42:27.628Z,14.93
2019-04-04T04:43:32.407Z,12.43
2019-04-04T04:44:31.574Z,14.35
2019-04-04T04:45:32.568Z,13.32
2019-04-04T04:46:33.572Z,15.03
2019-04-04T04:47:34.593Z,12.58
2019-04-04T04:48:35.602Z,11.65
2019-04-04T04:49:36.623Z,11.10
2019-04-04T04:50:40.065Z,13.85
2019-04-04T04:51:43.331Z,13.32
2019-04-04T04:52:46.559Z,15.72
2019-04-04T04:53:48.229Z,13.10
2019-04-04T04:54:49.409Z,11.28
2019-04-04T04:55:50.416Z,12.93
2019-04-04T04:56:51.437Z,16.23
2019-04-04T04:57:55.966Z,18.07
2019-04-04T04:58:55.735Z,12.33
2019-04-04T04:59:56.893Z,11.55
2019-04-04T05:00:57.899Z,15.35
2019-04-04T05:01:58.915Z,13.32
2019-04-04T05:02:59.936Z,15.83
2019-04-04T05:04:02.517Z,13.55
2019-04-04T05:05:05.158Z,15.50
2019-04-04T05:06:06.156Z,15.83
2019-04-04T05:07:08.008Z,15.70
2019-04-04T05:08:10.111Z,14.35
2019-04-04T05:09:13.924Z,13.13
2019-04-04T05:10:15.626Z,15.83
2019-04-04T05:11:18.660Z,14.90
2019-04-04T05:12:21.642Z,15.83
2019-04-04T05:13:24.581Z,14.83
2019-04-04T05:14:25.450Z,21.20
2019-04-04T05:15:26.455Z,18.48
2019-04-04T05:16:27.472Z,14.50
2019-04-04T05:17:28.467Z,19.55
2019-04-04T05:18:29.480Z,19.17
2019-04-04T05:19:30.501Z,18.67
2019-04-04T05:20:31.607Z,19.85
2019-04-04T05:21:34.556Z,15.00
2019-04-04T05:22:35.525Z,13.60
2019-04-04T05:23:36.548Z,17.55
2019-04-04T05:24:37.569Z,19.00
2019-04-04T05:25:50.620Z,17.62
2019-04-04T05:26:41.497Z,21.60
2019-04-04T05:27:42.522Z,18.12
2019-04-04T05:28:43.535Z,18.15
2019-04-04T05:29:44.996Z,17.40
2019-04-04T05:30:47.313Z,17.40
2019-04-04T05:31:50.139Z,18.02
2019-04-04T05:32:52.412Z,16.20
2019-04-04T05:33:54.693Z,12.70
2019-04-04T05:34:55.831Z,14.65
2019-04-04T05:35:56.912Z,17.67
2019-04-04T05:36:57.946Z,17.92
2019-04-04T05:37:59.043Z,16.70
2019-04-04T05:39:00.094Z,19.30
2019-04-04T05:40:01.203Z,15.90
2019-04-04T05:41:02.212Z,16.12
2019-04-04T05:42:03.316Z,19.15
2019-04-04T05:43:04.868Z,18.48
2019-04-04T05:44:08.914Z,16.07
2019-04-04T05:45:09.380Z,19.87
2019-04-04T05:46:10.448Z,21.85
2019-04-04T05:47:11.519Z,23.35
2019-04-04T05:48:12.618Z,21.87
2019-04-04T05:49:13.633Z,20.17
2019-04-04T05:50:16.416Z,23.57
2019-04-04T05:51:17.548Z,18.87
2019-04-04T05:52:18.588Z,18.37
2019-04-04T05:53:21.406Z,23.45
2019-04-04T05:54:22.522Z,22.62
2019-04-04T05:55:23.636Z,24.05
2019-04-04T05:56:24.666Z,25.27
2019-04-04T05:57:26.047Z,21.40
2019-04-04T05:58:27.066Z,21.62
2019-04-04T05:59:28.088Z,31.23
2019-04-04T06:00:29.198Z,27.45
2019-04-04T06:01:30.203Z,20.75
2019-04-04T06:02:31.247Z,21.73
2019-04-04T06:03:32.345Z,23.25
2019-04-04T06:04:33.383Z,21.45
2019-04-04T06:05:34.416Z,22.35
2019-04-04T06:06:35.408Z,22.20
2019-04-04T06:07:37.240Z,20.00
2019-04-04T06:08:42.451Z,23.02
2019-04-04T06:09:42.083Z,20.82
2019-04-04T06:10:43.300Z,17.30
2019-04-04T06:11:44.308Z,22.20
2019-04-04T06:12:45.315Z,22.90
2019-04-04T06:13:46.329Z,19.95
2019-04-04T06:14:47.351Z,17.80
2019-04-04T06:15:48.357Z,18.87
2019-04-04T06:16:49.363Z,20.25
2019-04-04T06:17:50.377Z,19.10
2019-04-04T06:18:51.399Z,18.87
2019-04-04T06:19:52.412Z,21.37
2019-04-04T06:20:53.423Z,20.10
2019-04-04T06:21:54.429Z,23.73
2019-04-04T06:22:55.437Z,20.00
2019-04-04T06:23:56.753Z,20.25
2019-04-04T06:24:59.428Z,21.12
2019-04-04T06:26:00.781Z,20.27
2019-04-04T06:27:01.805Z,22.90
2019-04-04T06:28:02.913Z,19.48
2019-04-04T06:29:05.637Z,19.75
2019-04-04T06:30:06.939Z,20.40
2019-04-04T06:31:07.954Z,22.15
2019-04-04T06:32:08.976Z,19.00
2019-04-04T06:33:09.983Z,17.80
2019-04-04T06:34:11.015Z,22.00
2019-04-04T06:35:13.226Z,18.23
2019-04-04T06:36:17.564Z,24.85
2019-04-04T06:37:20.056Z,17.87
2019-04-04T06:38:22.934Z,17.82
2019-04-04T06:39:25.246Z,25.90
2019-04-04T06:40:28.115Z,45.45
2019-04-04T06:41:30.678Z,19.95
2019-04-04T06:42:35.484Z,18.27
2019-04-04T06:43:35.713Z,18.17
2019-04-04T06:44:36.721Z,20.55
2019-04-04T06:45:37.749Z,22.30
2019-04-04T06:46:38.759Z,17.92
2019-04-04T06:47:39.870Z,20.27
2019-04-04T06:48:40.872Z,21.55
2019-04-04T06:49:41.880Z,21.80
2019-04-04T06:50:43.228Z,16.15
2019-04-04T06:51:46.459Z,17.00
2019-04-04T06:52:48.245Z,21.10
2019-04-04T06:53:53.316Z,23.83
2019-04-04T06:54:53.070Z,19.15
2019-04-04T06:55:54.077Z,21.85
2019-04-04T06:56:55.086Z,23.30
2019-04-04T06:57:56.093Z,23.02
2019-04-04T06:58:57.101Z,21.57
2019-04-04T06:59:58.126Z,19.73
2019-04-04T07:00:59.384Z,21.82
2019-04-04T07:02:00.392Z,20.80
2019-04-04T07:03:01.399Z,27.35
2019-04-04T07:04:02.713Z,21.57
2019-04-04T07:05:06.319Z,20.50
2019-04-04T07:06:10.195Z,25.15
2019-04-04T07:07:12.631Z,24.45
2019-04-04T07:08:15.196Z,21.70
2019-04-04T07:09:18.987Z,20.35
2019-04-04T07:10:21.759Z,23.30
2019-04-04T07:11:22.631Z,18.92
2019-04-04T07:12:28.290Z,16.95
2019-04-04T07:13:28.156Z,20.02
2019-04-04T07:14:35.119Z,26.73
2019-04-04T07:15:32.640Z,19.73
2019-04-04T07:16:34.210Z,19.67
2019-04-04T07:17:39.908Z,20.32
2019-04-04T07:18:40.931Z,22.73
2019-04-04T07:19:45.858Z,21.40
2019-04-04T07:20:48.072Z,19.27
2019-04-04T07:21:49.181Z,16.85
2019-04-04T07:22:51.209Z,23.30
2019-04-04T07:23:52.222Z,20.50
2019-04-04T07:24:53.224Z,22.60
2019-04-04T07:25:54.250Z,18.70
2019-04-04T07:26:55.277Z,18.67
2019-04-04T07:27:56.308Z,20.75
2019-04-04T07:28:57.301Z,20.52
2019-04-04T07:29:58.317Z,18.07
2019-04-04T07:31:01.512Z,19.65
2019-04-04T07:32:02.434Z,19.30
2019-04-04T07:33:03.432Z,18.10
2019-04-04T07:34:04.441Z,25.88
2019-04-04T07:35:05.954Z,18.45
2019-04-04T07:36:06.985Z,16.77
2019-04-04T07:37:07.988Z,24.52
2019-04-04T07:38:08.996Z,19.32
2019-04-04T07:39:12.304Z,20.30
2019-04-04T07:40:13.264Z,22.62
2019-04-04T07:41:14.870Z,21.15
2019-04-04T07:42:16.313Z,18.87
2019-04-04T07:43:19.379Z,22.40
2019-04-04T07:44:21.154Z,21.93
2019-04-04T07:45:25.965Z,19.55
2019-04-04T07:46:26.521Z,27.75
2019-04-04T07:47:27.538Z,21.30
2019-04-04T07:48:28.687Z,19.98
2019-04-04T07:49:29.768Z,19.35
2019-04-04T07:50:30.767Z,19.57
2019-04-04T07:51:31.779Z,18.73
2019-04-04T07:52:33.592Z,21.50
2019-04-04T07:53:36.452Z,22.85
2019-04-04T07:54:38.428Z,20.32
2019-04-04T07:55:42.152Z,17.90
2019-04-04T07:56:45.788Z,26.35
2019-04-04T07:57:45.961Z,22.70
2019-04-04T07:58:46.968Z,17.60
2019-04-04T07:59:47.975Z,21.55
2019-04-04T08:00:48.996Z,17.87
2019-04-04T08:01:51.300Z,21.25
2019-04-04T08:02:52.704Z,18.32
2019-04-04T08:03:53.723Z,21.10
2019-04-04T08:04:54.728Z,26.27
2019-04-04T08:05:55.748Z,21.52
2019-04-04T08:06:56.757Z,23.65
2019-04-04T08:07:57.762Z,23.12
2019-04-04T08:08:58.769Z,17.90
2019-04-04T08:09:59.778Z,17.50
2019-04-04T08:11:01.041Z,17.32
2019-04-04T08:12:02.043Z,21.48
2019-04-04T08:13:03.069Z,19.15
2019-04-04T08:14:04.079Z,17.27
2019-04-04T08:15:05.380Z,17.80
2019-04-04T08:16:06.401Z,15.20
2019-04-04T08:17:07.399Z,21.60
2019-04-04T08:18:08.399Z,15.08
2019-04-04T08:19:09.413Z,27.13
2019-04-04T08:20:10.620Z,20.02
2019-04-04T08:21:11.647Z,23.10
2019-04-04T08:22:12.746Z,22.58
2019-04-04T08:23:13.977Z,26.60
2019-04-04T08:24:15.000Z,22.07
2019-04-04T08:25:15.996Z,22.02
2019-04-04T08:26:17.016Z,16.30
2019-04-04T08:27:18.033Z,18.92
2019-04-04T08:28:19.051Z,21.33
2019-04-04T08:29:20.079Z,24.50
2019-04-04T08:30:21.135Z,20.40
2019-04-04T08:31:22.147Z,22.15
2019-04-04T08:32:23.154Z,21.62
2019-04-04T08:33:24.165Z,26.27
2019-04-04T08:34:25.172Z,22.87
2019-04-04T08:35:26.187Z,26.27
2019-04-04T08:36:27.203Z,23.27
2019-04-04T08:37:28.222Z,20.00
2019-04-04T08:38:29.858Z,20.90
2019-04-04T08:39:30.964Z,21.42
2019-04-04T08:40:31.979Z,20.90
2019-04-04T08:41:33.004Z,19.85
2019-04-04T08:42:34.025Z,26.50
2019-04-04T08:43:35.028Z,23.00
2019-04-04T08:44:36.028Z,21.23
2019-04-04T08:45:37.038Z,24.67
2019-04-04T08:46:38.052Z,18.25
2019-04-04T08:47:39.058Z,20.40
2019-04-04T08:48:40.064Z,28.92
2019-04-04T08:49:41.081Z,18.32
2019-04-04T08:50:42.122Z,22.73
2019-04-04T08:51:43.204Z,22.80
2019-04-04T08:52:44.208Z,24.98
2019-04-04T08:53:45.214Z,22.82
2019-04-04T08:54:46.233Z,25.60
2019-04-04T08:55:47.232Z,18.80
2019-04-04T08:56:48.259Z,26.77
2019-04-04T08:57:49.274Z,18.60
2019-04-04T08:58:51.698Z,19.62
2019-04-04T08:59:53.009Z,26.02
2019-04-04T09:00:54.015Z,25.85
2019-04-04T09:01:55.034Z,20.37
2019-04-04T09:02:56.042Z,20.02
2019-04-04T09:03:57.080Z,21.35
2019-04-04T09:05:10.883Z,23.85
2019-04-04T09:06:01.013Z,20.72
2019-04-04T09:07:02.028Z,22.17
2019-04-04T09:08:03.053Z,23.45
2019-04-04T09:09:05.159Z,24.20
2019-04-04T09:10:06.668Z,22.82
2019-04-04T09:11:07.675Z,19.92
2019-04-04T09:13:23.433Z,30.35
2019-04-04T09:14:24.700Z,20.80
2019-04-04T09:15:25.713Z,23.70
2019-04-04T09:16:26.718Z,21.65
2019-04-04T09:17:27.741Z,24.92
2019-04-04T09:18:28.750Z,23.65
2019-04-04T09:19:29.751Z,17.70
2019-04-04T09:20:30.763Z,19.40
2019-04-04T09:21:31.833Z,20.70
2019-04-04T09:22:32.915Z,19.00
2019-04-04T09:23:34.036Z,18.17
2019-04-04T09:24:36.126Z,23.92
2019-04-04T09:25:37.243Z,19.07
2019-04-04T09:26:38.256Z,24.05
2019-04-04T09:27:39.278Z,22.40
2019-04-04T09:28:40.290Z,19.80
2019-04-04T09:29:41.287Z,19.65
2019-04-04T09:30:42.287Z,25.12
2019-04-04T09:31:43.300Z,23.62
2019-04-04T09:32:44.328Z,18.48
2019-04-04T09:33:45.343Z,18.27
2019-04-04T09:34:46.346Z,23.60
2019-04-04T09:35:47.349Z,18.95
2019-04-04T09:36:48.355Z,20.12
2019-04-04T09:37:49.413Z,31.15
2019-04-04T09:38:50.429Z,23.57
2019-04-04T09:39:51.435Z,20.68
2019-04-04T09:40:52.447Z,21.87
2019-04-04T09:41:53.464Z,19.50
2019-04-04T09:42:54.545Z,22.00
2019-04-04T09:43:55.535Z,18.73
2019-04-04T09:44:56.544Z,19.32
2019-04-04T09:45:57.555Z,23.10
2019-04-04T09:47:05.354Z,25.35
2019-04-04T09:48:01.509Z,20.82
2019-04-04T09:49:02.613Z,22.93
2019-04-04T09:50:04.751Z,22.35
2019-04-04T09:51:05.747Z,16.80
2019-04-04T09:52:06.759Z,20.72
2019-04-04T09:53:07.785Z,20.55
2019-04-04T09:54:08.787Z,21.95
2019-04-04T09:55:10.100Z,21.17
2019-04-04T09:56:11.104Z,19.62
2019-04-04T09:57:12.116Z,24.40
2019-04-04T09:58:13.163Z,21.93
2019-04-04T09:59:14.240Z,20.10
2019-04-04T10:00:16.848Z,20.70
2019-04-04T10:01:17.864Z,19.17
2019-04-04T10:02:18.889Z,25.00
2019-04-04T10:03:19.884Z,22.22
2019-04-04T10:04:20.903Z,19.77
2019-04-04T10:05:21.912Z,28.52
2019-04-04T10:06:22.928Z,20.92
2019-04-04T10:07:25.260Z,20.60
2019-04-04T10:08:26.822Z,23.73
2019-04-04T10:09:27.808Z,21.07
2019-04-04T10:10:28.825Z,18.20
2019-04-04T10:11:29.841Z,19.50
2019-04-04T10:12:30.857Z,20.92
2019-04-04T10:13:31.871Z,22.50
2019-04-04T10:14:32.880Z,24.90
2019-04-04T10:15:33.996Z,18.60
2019-04-04T10:16:34.995Z,27.32
2019-04-04T10:17:36.116Z,16.87
2019-04-04T10:18:37.225Z,21.93
2019-04-04T10:19:38.215Z,22.25
2019-04-04T10:20:39.212Z,17.45
2019-04-04T10:21:40.218Z,23.38
2019-04-04T10:22:41.228Z,25.70
2019-04-04T10:23:42.252Z,22.85
2019-04-04T10:24:43.258Z,25.15
2019-04-04T10:25:44.266Z,20.27
2019-04-04T10:26:45.277Z,16.62
2019-04-04T10:27:46.293Z,28.07
2019-04-04T10:28:47.305Z,25.25
2019-04-04T10:29:48.337Z,18.25
2019-04-04T10:30:49.332Z,20.57
2019-04-04T10:31:50.343Z,16.52
2019-04-04T10:32:51.400Z,17.85
2019-04-04T10:33:52.415Z,24.45
2019-04-04T10:34:53.415Z,25.43
2019-04-04T10:35:54.439Z,22.52
2019-04-04T10:36:55.566Z,25.02
2019-04-04T10:37:56.579Z,19.55
2019-04-04T10:38:57.588Z,20.55
2019-04-04T10:39:58.617Z,21.75
2019-04-04T10:40:59.621Z,20.70
2019-04-04T10:42:00.629Z,18.05
2019-04-04T10:43:01.764Z,31.12
2019-04-04T10:44:02.872Z,19.07
2019-04-04T10:45:07.568Z,18.95
2019-04-04T10:46:08.596Z,18.25
2019-04-04T10:47:09.613Z,18.05
2019-04-04T10:48:10.887Z,24.70
2019-04-04T10:49:11.899Z,17.77
2019-04-04T10:50:13.221Z,22.35
2019-04-04T10:51:14.224Z,20.55
2019-04-04T10:52:15.238Z,17.27
2019-04-04T10:53:16.247Z,20.65
2019-04-04T10:54:17.256Z,13.43
2019-04-04T10:55:18.367Z,24.98
2019-04-04T10:56:19.377Z,18.32
2019-04-04T10:57:20.381Z,15.15
2019-04-04T10:58:21.403Z,19.80
2019-04-04T10:59:22.408Z,17.02
2019-04-04T11:00:23.417Z,16.25
2019-04-04T11:01:24.423Z,17.37
2019-04-04T11:02:25.432Z,15.53
2019-04-04T11:03:26.479Z,18.05
2019-04-04T11:04:27.484Z,14.35
2019-04-04T11:05:28.494Z,20.68
2019-04-04T11:06:29.512Z,15.28
2019-04-04T11:07:30.513Z,19.62
2019-04-04T11:08:31.530Z,15.50
2019-04-04T11:09:42.010Z,15.35
2019-04-04T11:10:35.452Z,18.67
2019-04-04T11:11:36.455Z,14.90
2019-04-04T11:12:37.463Z,16.50
2019-04-04T11:13:38.480Z,15.75
2019-04-04T11:14:39.768Z,17.60
2019-04-04T11:15:40.784Z,11.03
2019-04-04T11:16:41.796Z,13.83
2019-04-04T11:17:42.807Z,16.82
2019-04-04T11:18:43.844Z,13.85
2019-04-04T11:19:44.845Z,15.85
2019-04-04T11:20:46.122Z,17.92
2019-04-04T11:21:47.132Z,13.72
2019-04-04T11:22:48.140Z,19.50
2019-04-04T11:23:49.151Z,16.60
2019-04-04T11:24:50.166Z,16.67
2019-04-04T11:25:51.164Z,12.03
2019-04-04T11:26:52.395Z,24.35
2019-04-04T11:27:53.398Z,15.65
2019-04-04T11:28:54.412Z,13.45
2019-04-04T11:29:55.414Z,16.55
2019-04-04T11:30:56.432Z,14.73
2019-04-04T11:31:57.449Z,14.18
2019-04-04T11:32:58.504Z,16.50
2019-04-04T11:33:59.549Z,18.90
2019-04-04T11:35:00.561Z,15.48
2019-04-04T11:36:01.568Z,16.55
2019-04-04T11:37:02.581Z,13.70
2019-04-04T11:38:03.851Z,14.58
2019-04-04T11:39:05.555Z,14.18
2019-04-04T11:40:06.873Z,14.50
2019-04-04T11:41:07.883Z,15.45
2019-04-04T11:42:08.887Z,14.23
2019-04-04T11:43:10.031Z,14.95
2019-04-04T11:44:11.125Z,14.65
2019-04-04T11:45:12.381Z,17.92
2019-04-04T11:46:13.465Z,13.75
2019-04-04T11:47:14.470Z,14.83
2019-04-04T11:48:15.483Z,16.55
2019-04-04T11:49:16.492Z,13.95
2019-04-04T11:50:17.525Z,14.33
2019-04-04T11:51:18.537Z,12.63
2019-04-04T11:52:19.551Z,14.58
2019-04-04T11:53:20.578Z,12.50
2019-04-04T11:54:21.584Z,14.93
2019-04-04T11:55:22.615Z,12.70
2019-04-04T11:56:23.611Z,13.85
2019-04-04T11:57:24.639Z,14.03
2019-04-04T11:58:25.654Z,14.93
2019-04-04T11:59:26.651Z,14.83
2019-04-04T12:00:29.559Z,13.98
2019-04-04T12:01:32.463Z,15.93
2019-04-04T12:02:33.467Z,14.63
2019-04-04T12:03:34.490Z,13.55
2019-04-04T12:04:35.871Z,13.35
2019-04-04T12:05:36.885Z,14.50
2019-04-04T12:06:37.897Z,14.95
2019-04-04T12:07:38.920Z,13.00
2019-04-04T12:08:40.011Z,14.78
2019-04-04T12:09:41.104Z,10.93
2019-04-04T12:10:42.224Z,14.55
2019-04-04T12:11:43.220Z,16.25
2019-04-04T12:12:44.242Z,17.12
2019-04-04T12:13:45.248Z,12.35
2019-04-04T12:14:46.255Z,13.20
2019-04-04T12:15:47.278Z,13.48
2019-04-04T12:16:48.547Z,16.23
2019-04-04T12:17:49.547Z,13.85
2019-04-04T12:18:50.564Z,13.43
2019-04-04T12:19:51.572Z,15.15
2019-04-04T12:20:52.588Z,14.20
2019-04-04T12:21:53.597Z,14.87
2019-04-04T12:22:54.600Z,18.02
2019-04-04T12:23:55.615Z,15.48
2019-04-04T12:24:56.612Z,14.95
2019-04-04T12:25:57.616Z,10.85
2019-04-04T12:26:58.625Z,14.80
2019-04-04T12:27:59.637Z,10.43
2019-04-04T12:29:00.656Z,13.58
2019-04-04T12:30:03.464Z,11.53
2019-04-04T12:31:04.472Z,11.83
2019-04-04T12:32:05.483Z,13.00
2019-04-04T12:33:06.485Z,11.40
2019-04-04T12:34:07.510Z,11.00
2019-04-04T12:35:08.519Z,12.90
2019-04-04T12:36:09.516Z,11.33
2019-04-04T12:37:10.519Z,13.95
2019-04-04T12:38:11.534Z,11.50
2019-04-04T12:39:12.553Z,12.88
2019-04-04T12:40:20.349Z,11.83
2019-04-04T12:41:16.896Z,11.73
2019-04-04T12:42:17.896Z,12.40
2019-04-04T12:43:18.903Z,11.75
2019-04-04T12:44:19.936Z,11.83
2019-04-04T12:45:20.954Z,13.32
2019-04-04T12:46:21.960Z,12.53
2019-04-04T12:47:22.969Z,11.73
2019-04-04T12:48:23.991Z,11.90
2019-04-04T12:49:24.996Z,9.43
2019-04-04T12:50:26.008Z,10.58
2019-04-04T12:51:27.017Z,11.18
2019-04-04T12:52:28.111Z,11.70
2019-04-04T12:53:29.160Z,10.32
2019-04-04T12:54:30.166Z,11.95
2019-04-04T12:55:31.167Z,10.15
2019-04-04T12:56:32.169Z,12.03
2019-04-04T12:57:33.169Z,11.05
2019-04-04T12:58:34.201Z,13.28
2019-04-04T12:59:35.197Z,8.98
2019-04-04T13:00:36.212Z,11.43
2019-04-04T13:01:37.221Z,8.75
2019-04-04T13:02:38.227Z,11.00
2019-04-04T13:03:39.253Z,11.48
2019-04-04T13:04:40.269Z,11.80
2019-04-04T13:05:41.272Z,8.70
2019-04-04T13:06:42.417Z,11.18
2019-04-04T13:07:43.431Z,9.98
2019-04-04T13:08:44.547Z,10.58
2019-04-04T13:09:45.553Z,9.23
2019-04-04T13:10:46.592Z,11.45
2019-04-04T13:11:47.600Z,11.35
2019-04-04T13:12:48.613Z,13.60
2019-04-04T13:13:49.636Z,8.95
2019-04-04T13:14:50.643Z,11.05
2019-04-04T13:15:51.656Z,8.75
2019-04-04T13:16:52.679Z,11.57